Aérodrome :
LOGIN :

S'inscrire | Disclaimer

   EN    FR    IT 

 










Légende :    VFR   VFR Marginal   IFR   IFR Intensif   IFR Très Intensif
Visi : 
Plafond : 
>= 8 km
>= 3000ft
5 à 8 km
1000 à 3000 ft
1500m à 5 km
500 à 1000 ft
800 à 1500m
200 à 500 ft
< 800m
< 200 ft
Symboles :   Orages  Brouillard  Fortes neiges  Fortes précipitations  Vent > 20 kt
SIGMETs :   Divers  Orages  Givrage  Turbulence  Onde Orograph.  Cendres Volcan.






- Altitude de l'aérodrome : 373 ft
- Code IATA : OZH


UKDE - Mokraya

DERNIER METAR :
  • 101130Z 01003MPS 300V070 CAVOK 31/10 Q1012 R02R/090070 NOSIG

METARs EXPIRÉS :
  • 101100Z 36003MPS 300V050 CAVOK 31/11 Q1012 R02R/090070 NOSIG
  • 101030Z VRB02MPS CAVOK 30/11 Q1013 R02R/090070 NOSIG
  • 101000Z 03003MPS 300V080 CAVOK 31/11 Q1013 R02R/090070 NOSIG
  • 100930Z 04002MPS 340V090 CAVOK 31/11 Q1013 R02R/090070 NOSIG
  • 100900Z 02003MPS 310V080 CAVOK 30/11 Q1013 R02R/090070 NOSIG

TAF TAF UKDE
Valide du 10 à 12h jusqu'au 10 à 21h UTC


101105Z 1012/1021 01003MPS 9999 SCT030 TX30/1012Z TN21/1021Z
TEMPO 1012/1015 05005MPS 3100 -SHRA BKN020CB
PROB40
TEMPO 1012/1015 -TSRA BKN015CB
FIR UKDV / Europe



MET'MAP, la Météo Aéronautique d'un coup d'oeil ! - Copyright ORBIFLY Décembre 2007 - Disclaimer

ORBIFLY MET'MAP TEAM :

Programmation & Développement : Alexandra Zaïnal
Sur une idée originale de : Baudouin d'Aumeries
Assistance à la programmation : Marc-Olivier Méhu
Soutien technique & logistique : Manuel Goepfert

Contact : metmap@orbifly.com




SOURCES & CREDITS :

   NOAA